Main page
Satellite images 15-day forecastsClimateMarine weather Cyclones Lightning AirportsFAQ Newsletter About
Weather : Europe Africa North America South America Asia Australia-Oceania Others
Languages Contact

Istanbul Sabiha Gökçen, Turkey

latitude: 40-53-55N, longitude: 029-18-33E, elevation: 95 m


METAR: LTFJ 280320Z 05007KT CAVOK 01/01 Q1024 NOSIG
TAF: LTFJ 272240Z 2800/2824 VRB02KT CAVOK PROB30 TEMPO 2803/2805 4000 BR SCT010 BECMG 2806/2809 SCT035 BKN100

Time: 05:50 (03:50 UTC)

Current weather observation

The report was made 30 minutes ago, at 03:20 UTC
Wind 7 kt from the Northeast
Temperature 1°C
Humidity 100%
Pressure 1024 hPa
Visibility 10 km or more
no clouds below 1500 m and no cumulonimbus

Change units

Forecast

The report was made 5 hours and 10 minutes ago, at 22:40 UTC
Forecast valid from 28 at 00 UTC to 28 at 24 UTC
Wind 2 kt from variable directions
Visibility 10 km or more
no clouds below 1500 m and no cumulonimbus
Probability 30% :
Temporary
from 28 at 03 UTC to 28 at 05 UTC
Visibility: 4000 m
Scattered clouds at a height of 1000 ft
mist
Becoming
from 28 at 06 UTC to 28 at 09 UTC
Scattered clouds at a height of 3500 ft
Broken clouds at a height of 10000 ft
The information on this site is subject to a disclaimer
Weather : Europe Africa North America South America Asia Australia-Oceania Others
Satellite images 15-day forecastsClimateMarine weather Cyclones Lightning AirportsFAQ Languages Contact Newsletter About